createdAt,value
2017-09-05T00:00:17.860Z,13.1
2017-09-05T00:01:21.296Z,13.1
2017-09-05T00:02:22.651Z,13.0
2017-09-05T00:03:24.047Z,13.0
2017-09-05T00:04:25.419Z,13.0
2017-09-05T00:05:26.804Z,13.1
2017-09-05T00:06:28.221Z,13.1
2017-09-05T00:07:29.612Z,13.0
2017-09-05T00:08:31.001Z,13.1
2017-09-05T00:09:32.373Z,13.0
2017-09-05T00:10:33.754Z,12.9
2017-09-05T00:11:35.123Z,13.0
2017-09-05T00:12:36.497Z,12.8
2017-09-05T00:13:37.869Z,12.8
2017-09-05T00:14:39.237Z,12.7
2017-09-05T00:15:40.611Z,12.8
2017-09-05T00:16:41.983Z,12.8
2017-09-05T00:17:43.402Z,12.8
2017-09-05T00:18:44.776Z,12.7
2017-09-05T00:19:46.146Z,12.8
2017-09-05T00:20:47.516Z,12.8
2017-09-05T00:21:48.881Z,12.8
2017-09-05T00:22:50.258Z,12.8
2017-09-05T00:23:51.628Z,12.8
2017-09-05T00:24:53.019Z,13.0
2017-09-05T00:25:54.398Z,12.9
2017-09-05T00:26:55.767Z,12.8
2017-09-05T00:27:57.144Z,12.9
2017-09-05T00:28:58.514Z,12.7
2017-09-05T00:29:59.886Z,12.6
2017-09-05T00:31:01.260Z,12.8
2017-09-05T00:32:02.647Z,12.8
2017-09-05T00:33:04.022Z,12.8
2017-09-05T00:34:05.458Z,12.7
2017-09-05T00:35:06.831Z,12.7
2017-09-05T00:36:08.205Z,12.7
2017-09-05T00:37:09.596Z,12.7
2017-09-05T00:38:10.965Z,12.8
2017-09-05T00:39:12.380Z,12.6
2017-09-05T00:40:13.750Z,12.7
2017-09-05T00:41:15.127Z,12.6
2017-09-05T00:42:16.490Z,12.7
2017-09-05T00:43:17.864Z,12.7
2017-09-05T00:44:19.275Z,12.6
2017-09-05T00:45:20.648Z,12.8
2017-09-05T00:46:22.019Z,12.7
2017-09-05T00:47:23.395Z,12.6
2017-09-05T00:48:24.769Z,12.6
2017-09-05T00:49:26.142Z,12.7
2017-09-05T00:50:27.513Z,12.6
2017-09-05T00:51:28.893Z,12.7
2017-09-05T00:52:30.258Z,12.7
2017-09-05T00:53:31.628Z,12.7
2017-09-05T00:54:33.004Z,12.7
2017-09-05T00:55:34.381Z,12.6
2017-09-05T00:56:35.750Z,12.8
2017-09-05T00:57:37.121Z,12.7
2017-09-05T00:58:38.491Z,12.7
2017-09-05T00:59:39.870Z,12.6
2017-09-05T01:00:41.240Z,12.7
2017-09-05T01:01:42.614Z,12.6
2017-09-05T01:02:43.986Z,12.7
2017-09-05T01:03:45.355Z,12.6
2017-09-05T01:04:46.724Z,12.6
2017-09-05T01:05:48.123Z,12.5
2017-09-05T01:06:49.511Z,12.5
2017-09-05T01:07:50.888Z,12.5
2017-09-05T01:08:52.260Z,12.5
2017-09-05T01:09:53.627Z,12.6
2017-09-05T01:10:55.006Z,12.5
2017-09-05T01:11:56.378Z,12.5
2017-09-05T01:12:57.750Z,12.6
2017-09-05T01:13:59.124Z,12.6
2017-09-05T01:15:00.497Z,12.5
2017-09-05T01:16:01.869Z,12.5
2017-09-05T01:17:03.255Z,12.6
2017-09-05T01:18:04.628Z,12.5
2017-09-05T01:19:06.001Z,12.5
2017-09-05T01:20:07.388Z,12.5
2017-09-05T01:21:08.757Z,12.6
2017-09-05T01:22:10.171Z,12.6
2017-09-05T01:23:11.564Z,12.5
2017-09-05T01:24:12.939Z,12.5
2017-09-05T01:25:14.309Z,12.5
2017-09-05T01:26:15.686Z,12.5
2017-09-05T01:27:17.091Z,12.4
2017-09-05T01:28:18.465Z,12.5
2017-09-05T01:29:19.852Z,12.4
2017-09-05T01:30:21.272Z,12.5
2017-09-05T01:31:22.655Z,12.5
2017-09-05T01:32:24.037Z,12.3
2017-09-05T01:33:25.409Z,12.2
2017-09-05T01:34:26.788Z,12.2
2017-09-05T01:35:28.164Z,12.0
2017-09-05T01:36:29.534Z,12.0
2017-09-05T01:37:30.909Z,12.1
2017-09-05T01:38:32.279Z,12.2
2017-09-05T01:39:33.651Z,12.2
2017-09-05T01:40:35.020Z,12.3
2017-09-05T01:41:36.393Z,12.2
2017-09-05T01:42:37.794Z,12.2
2017-09-05T01:43:39.167Z,12.2
2017-09-05T01:44:40.540Z,12.0
2017-09-05T01:45:41.944Z,12.1
2017-09-05T01:46:43.283Z,12.2
2017-09-05T01:47:44.650Z,12.1
2017-09-05T01:48:46.058Z,12.1
2017-09-05T01:49:47.458Z,12.1
2017-09-05T01:50:48.831Z,12.2
2017-09-05T01:51:50.216Z,12.1
2017-09-05T01:52:51.585Z,12.2
2017-09-05T01:53:52.953Z,12.1
2017-09-05T01:54:54.335Z,12.1
2017-09-05T01:55:55.702Z,12.0
2017-09-05T01:56:57.074Z,12.1
2017-09-05T01:57:58.454Z,12.0
2017-09-05T01:58:59.830Z,11.9
2017-09-05T02:00:01.207Z,12.0
2017-09-05T02:01:02.581Z,11.9
2017-09-05T02:02:03.949Z,12.0
2017-09-05T02:03:05.321Z,12.0
2017-09-05T02:04:06.695Z,12.1
2017-09-05T02:05:08.062Z,12.0
2017-09-05T02:06:09.470Z,12.0
2017-09-05T02:07:10.848Z,12.0
2017-09-05T02:08:12.209Z,12.1
2017-09-05T02:09:13.583Z,12.1
2017-09-05T02:10:14.954Z,12.0
2017-09-05T02:11:16.324Z,11.9
2017-09-05T02:12:17.718Z,11.9
2017-09-05T02:13:19.088Z,12.0
2017-09-05T02:14:20.475Z,12.0
2017-09-05T02:15:21.854Z,12.0
2017-09-05T02:16:23.219Z,12.0
2017-09-05T02:17:24.593Z,12.0
2017-09-05T02:18:25.968Z,12.1
2017-09-05T02:19:27.376Z,11.9
2017-09-05T02:20:28.770Z,11.9
2017-09-05T02:21:30.152Z,11.9
2017-09-05T02:22:31.523Z,12.1
2017-09-05T02:23:32.892Z,12.0
2017-09-05T02:24:34.267Z,12.1
2017-09-05T02:25:35.638Z,11.9
2017-09-05T02:26:37.010Z,12.1
2017-09-05T02:27:38.388Z,12.0
2017-09-05T02:28:39.762Z,11.9
2017-09-05T02:29:41.153Z,11.9
2017-09-05T02:30:42.528Z,11.8
2017-09-05T02:31:43.898Z,11.8
2017-09-05T02:32:45.270Z,11.9
2017-09-05T02:33:46.647Z,11.9
2017-09-05T02:34:48.018Z,11.7
2017-09-05T02:35:49.389Z,11.7
2017-09-05T02:36:51.212Z,11.7
2017-09-05T02:37:52.391Z,11.9
2017-09-05T02:38:53.761Z,11.8
2017-09-05T02:39:55.133Z,11.8
2017-09-05T02:40:56.504Z,11.8
2017-09-05T02:41:57.875Z,11.8
2017-09-05T02:42:59.260Z,11.8
2017-09-05T02:44:00.632Z,11.9
2017-09-05T02:45:02.002Z,11.9
2017-09-05T02:46:03.372Z,11.9
2017-09-05T02:47:04.744Z,11.8
2017-09-05T02:48:06.116Z,11.8
2017-09-05T02:49:07.485Z,11.8
2017-09-05T02:50:08.860Z,11.7
2017-09-05T02:51:10.230Z,11.9
2017-09-05T02:52:11.603Z,12.0
2017-09-05T02:53:12.977Z,12.0
2017-09-05T02:54:14.350Z,11.9
2017-09-05T02:55:15.720Z,11.9
2017-09-05T02:56:17.094Z,12.0
2017-09-05T02:57:19.316Z,11.9
2017-09-05T02:58:20.685Z,11.9
2017-09-05T02:59:22.056Z,11.7
2017-09-05T03:00:23.425Z,11.8
2017-09-05T03:01:24.794Z,11.7
2017-09-05T03:02:26.177Z,11.7
2017-09-05T03:03:27.551Z,11.8
2017-09-05T03:04:28.924Z,11.8
2017-09-05T03:05:30.293Z,11.7
2017-09-05T03:06:31.687Z,11.6
2017-09-05T03:07:33.055Z,11.6
2017-09-05T03:08:34.431Z,11.8
2017-09-05T03:09:35.806Z,11.7
2017-09-05T03:10:37.180Z,11.8
2017-09-05T03:11:38.550Z,11.7
2017-09-05T03:12:39.920Z,11.7
2017-09-05T03:13:41.300Z,11.6
2017-09-05T03:14:42.674Z,11.5
2017-09-05T03:15:44.047Z,11.5
2017-09-05T03:16:45.416Z,11.5
2017-09-05T03:17:46.796Z,11.6
2017-09-05T03:18:48.169Z,11.4
2017-09-05T03:19:49.540Z,11.5
2017-09-05T03:20:50.912Z,11.5
2017-09-05T03:21:52.283Z,11.4
2017-09-05T03:22:53.658Z,11.3
2017-09-05T03:23:55.027Z,11.3
2017-09-05T03:24:56.402Z,11.3
2017-09-05T03:25:57.770Z,11.2
2017-09-05T03:26:59.142Z,11.4
2017-09-05T03:28:00.517Z,11.4
2017-09-05T03:29:01.883Z,11.3
2017-09-05T03:30:03.315Z,11.4
2017-09-05T03:31:04.685Z,11.3
2017-09-05T03:32:06.065Z,11.4
2017-09-05T03:33:07.484Z,11.4
2017-09-05T03:34:08.860Z,11.5
2017-09-05T03:35:10.268Z,11.4
2017-09-05T03:36:11.634Z,11.5
2017-09-05T03:37:13.005Z,11.4
2017-09-05T03:38:14.380Z,11.5
2017-09-05T03:39:15.753Z,11.4
2017-09-05T03:40:17.122Z,11.5
2017-09-05T03:41:18.490Z,11.5
2017-09-05T03:42:19.860Z,11.5
2017-09-05T03:43:21.230Z,11.5
2017-09-05T03:44:22.630Z,11.4
2017-09-05T03:45:24.000Z,11.5
2017-09-05T03:46:25.373Z,11.5
2017-09-05T03:47:26.784Z,11.5
2017-09-05T03:48:28.153Z,11.5
2017-09-05T03:49:29.526Z,11.5
2017-09-05T03:50:30.902Z,11.6
2017-09-05T03:51:32.278Z,11.5
2017-09-05T03:52:33.647Z,11.5
2017-09-05T03:53:35.024Z,11.6
2017-09-05T03:54:36.396Z,11.6
2017-09-05T03:55:37.769Z,11.5
2017-09-05T03:56:39.134Z,11.7
2017-09-05T03:57:40.514Z,11.6
2017-09-05T03:58:41.886Z,11.7
2017-09-05T03:59:43.253Z,11.6
2017-09-05T04:00:44.626Z,11.5
2017-09-05T04:01:46.045Z,11.5
2017-09-05T04:02:47.411Z,11.4
2017-09-05T04:03:48.782Z,11.3
2017-09-05T04:04:50.158Z,11.3
2017-09-05T04:05:51.530Z,11.4
2017-09-05T04:06:52.934Z,11.4
2017-09-05T04:07:54.302Z,11.4
2017-09-05T04:08:55.672Z,11.4
2017-09-05T04:09:57.043Z,11.4
2017-09-05T04:10:58.455Z,11.3
2017-09-05T04:11:59.826Z,11.2
2017-09-05T04:13:01.201Z,11.3
2017-09-05T04:14:02.581Z,11.3
2017-09-05T04:15:03.958Z,11.2
2017-09-05T04:16:05.358Z,11.2
2017-09-05T04:17:06.729Z,11.2
2017-09-05T04:18:08.110Z,11.1
2017-09-05T04:19:09.519Z,11.1
2017-09-05T04:20:10.890Z,11.0
2017-09-05T04:21:12.261Z,11.2
2017-09-05T04:22:13.632Z,11.2
2017-09-05T04:23:15.005Z,11.2
2017-09-05T04:24:16.374Z,11.1
2017-09-05T04:25:17.745Z,11.2
2017-09-05T04:26:19.118Z,11.1
2017-09-05T04:27:20.488Z,11.2
2017-09-05T04:28:21.946Z,11.1
2017-09-05T04:29:23.286Z,11.1
2017-09-05T04:30:24.659Z,11.0
2017-09-05T04:31:26.027Z,11.1
2017-09-05T04:32:27.397Z,11.1
2017-09-05T04:33:28.770Z,11.1
2017-09-05T04:34:30.147Z,11.1
2017-09-05T04:35:31.522Z,11.1
2017-09-05T04:36:32.896Z,11.1
2017-09-05T04:37:34.266Z,11.1
2017-09-05T04:38:35.638Z,10.9
2017-09-05T04:39:37.009Z,11.0
2017-09-05T04:40:38.382Z,11.2
2017-09-05T04:41:39.753Z,11.2
2017-09-05T04:42:41.126Z,11.2
2017-09-05T04:43:42.497Z,11.3
2017-09-05T04:44:43.868Z,11.3
2017-09-05T04:45:45.241Z,11.2
2017-09-05T04:46:46.642Z,11.4
2017-09-05T04:47:48.011Z,11.4
2017-09-05T04:48:49.385Z,11.3
2017-09-05T04:49:50.755Z,11.2
2017-09-05T04:50:52.128Z,11.4
2017-09-05T04:51:53.508Z,11.5
2017-09-05T04:52:54.894Z,11.6
2017-09-05T04:53:56.264Z,11.7
2017-09-05T04:54:57.640Z,11.8
2017-09-05T04:55:59.016Z,11.6
2017-09-05T04:57:00.387Z,11.7
2017-09-05T04:58:01.761Z,11.9
2017-09-05T04:59:03.105Z,11.9
2017-09-05T05:00:04.489Z,11.9
2017-09-05T05:01:05.862Z,11.8
2017-09-05T05:02:07.236Z,11.8
2017-09-05T05:03:08.627Z,11.8
2017-09-05T05:04:09.996Z,11.8
2017-09-05T05:05:11.371Z,11.9
2017-09-05T05:06:12.742Z,11.9
2017-09-05T05:07:14.081Z,11.9
2017-09-05T05:08:15.452Z,12.0
2017-09-05T05:09:16.824Z,12.0
2017-09-05T05:10:18.232Z,12.0
2017-09-05T05:11:19.576Z,12.1
2017-09-05T05:12:20.952Z,12.1
2017-09-05T05:13:22.323Z,12.1
2017-09-05T05:14:23.703Z,12.0
2017-09-05T05:15:25.080Z,11.9
2017-09-05T05:16:26.451Z,12.0
2017-09-05T05:17:27.972Z,11.8
2017-09-05T05:18:29.347Z,11.8
2017-09-05T05:19:30.721Z,11.8
2017-09-05T05:20:32.096Z,11.8
2017-09-05T05:21:33.466Z,11.8
2017-09-05T05:22:34.845Z,11.7
2017-09-05T05:23:36.311Z,11.8
2017-09-05T05:24:37.680Z,11.7
2017-09-05T05:25:39.052Z,11.8
2017-09-05T05:26:40.424Z,11.9
2017-09-05T05:27:41.803Z,11.9
2017-09-05T05:28:43.176Z,11.9
2017-09-05T05:29:44.543Z,11.8
2017-09-05T05:30:45.922Z,11.7
2017-09-05T05:31:47.305Z,11.8
2017-09-05T05:32:48.677Z,11.8
2017-09-05T05:33:50.085Z,11.8
2017-09-05T05:34:51.504Z,11.8
2017-09-05T05:35:52.880Z,11.8
2017-09-05T05:36:54.271Z,11.8
2017-09-05T05:37:55.650Z,11.7
2017-09-05T05:38:57.029Z,11.8
2017-09-05T05:39:58.410Z,12.0
2017-09-05T05:40:59.794Z,11.9
2017-09-05T05:42:01.171Z,11.9
2017-09-05T05:43:02.544Z,11.9
2017-09-05T05:44:03.919Z,11.9
2017-09-05T05:45:05.296Z,12.1
2017-09-05T05:46:06.714Z,12.1
2017-09-05T05:47:08.090Z,12.2
2017-09-05T05:48:09.480Z,12.1
2017-09-05T05:49:10.846Z,12.2
2017-09-05T05:50:12.244Z,12.2
2017-09-05T05:51:13.647Z,12.2
2017-09-05T05:52:15.022Z,12.2
2017-09-05T05:53:16.441Z,12.2
2017-09-05T05:54:17.853Z,12.3
2017-09-05T05:55:19.235Z,12.4
2017-09-05T05:56:20.609Z,12.5
2017-09-05T05:57:21.979Z,12.5
2017-09-05T05:58:23.367Z,12.5
2017-09-05T05:59:24.733Z,12.5
2017-09-05T06:00:26.114Z,12.6
2017-09-05T06:01:27.487Z,12.5
2017-09-05T06:02:28.863Z,12.6
2017-09-05T06:03:30.258Z,12.6
2017-09-05T06:04:31.631Z,12.7
2017-09-05T06:05:33.003Z,12.7
2017-09-05T06:06:34.379Z,12.7
2017-09-05T06:07:35.811Z,12.9
2017-09-05T06:08:37.184Z,12.8
2017-09-05T06:09:38.558Z,12.9
2017-09-05T06:10:39.952Z,13.0
2017-09-05T06:11:41.324Z,13.0
2017-09-05T06:12:42.758Z,13.1
2017-09-05T06:13:44.167Z,13.1
2017-09-05T06:14:45.553Z,13.1
2017-09-05T06:15:46.962Z,13.2
2017-09-05T06:16:48.336Z,13.2
2017-09-05T06:17:49.740Z,13.2
2017-09-05T06:18:51.122Z,13.3
2017-09-05T06:19:53.314Z,13.4
2017-09-05T06:20:54.686Z,13.1
2017-09-05T06:21:56.075Z,13.2
2017-09-05T06:22:57.455Z,13.3
2017-09-05T06:23:58.825Z,13.4
2017-09-05T06:25:00.221Z,13.4
2017-09-05T06:26:01.592Z,13.5
2017-09-05T06:27:02.963Z,13.5
2017-09-05T06:28:04.338Z,13.6
2017-09-05T06:29:05.710Z,13.7
2017-09-05T06:30:08.221Z,13.7
2017-09-05T06:31:09.607Z,13.6
2017-09-05T06:32:10.986Z,13.8
2017-09-05T06:33:12.358Z,14.0
2017-09-05T06:34:13.734Z,14.0
2017-09-05T06:35:15.111Z,14.2
2017-09-05T06:36:16.486Z,14.0
2017-09-05T06:37:17.881Z,14.0
2017-09-05T06:38:19.257Z,14.1
2017-09-05T06:39:20.633Z,14.3
2017-09-05T06:40:22.006Z,14.5
2017-09-05T06:41:23.378Z,14.3
2017-09-05T06:42:24.759Z,14.4
2017-09-05T06:43:26.133Z,14.6
2017-09-05T06:44:27.510Z,14.5
2017-09-05T06:45:28.887Z,14.6
2017-09-05T06:46:30.294Z,14.7
2017-09-05T06:47:31.692Z,14.7
2017-09-05T06:48:33.095Z,14.8
2017-09-05T06:49:34.469Z,14.9
2017-09-05T06:50:35.854Z,15.1
2017-09-05T06:51:37.304Z,15.0
2017-09-05T06:52:38.998Z,15.0
2017-09-05T06:53:40.415Z,15.1
2017-09-05T06:54:41.796Z,15.2
2017-09-05T06:55:43.169Z,15.4
2017-09-05T06:56:44.544Z,15.7
2017-09-05T06:57:45.921Z,15.8
2017-09-05T06:58:47.296Z,15.5
2017-09-05T06:59:48.711Z,15.6
2017-09-05T07:00:50.089Z,15.7
2017-09-05T07:01:51.489Z,16.0
2017-09-05T07:02:52.869Z,16.2
2017-09-05T07:03:54.248Z,16.5
2017-09-05T07:04:55.635Z,16.4
2017-09-05T07:05:57.012Z,16.2
2017-09-05T07:06:58.420Z,16.3
2017-09-05T07:08:00.005Z,16.2
2017-09-05T07:09:01.348Z,16.5
2017-09-05T07:10:02.722Z,16.7
2017-09-05T07:11:04.847Z,16.6
2017-09-05T07:12:06.234Z,16.7
2017-09-05T07:13:07.620Z,16.8
2017-09-05T07:14:08.998Z,17.0
2017-09-05T07:15:10.384Z,17.2
2017-09-05T07:16:11.773Z,17.2
2017-09-05T07:17:13.161Z,17.2
2017-09-05T07:18:14.544Z,17.2
2017-09-05T07:19:15.934Z,17.4
2017-09-05T07:20:17.381Z,17.3
2017-09-05T07:21:18.791Z,17.1
2017-09-05T07:22:20.160Z,17.4
2017-09-05T07:23:21.544Z,17.3
2017-09-05T07:24:22.916Z,17.5
2017-09-05T07:25:24.457Z,17.3
2017-09-05T07:26:25.819Z,17.3
2017-09-05T07:27:28.004Z,17.3
2017-09-05T07:28:29.389Z,17.4
2017-09-05T07:29:30.813Z,17.5
2017-09-05T07:30:32.229Z,17.5
2017-09-05T07:31:33.604Z,17.6
2017-09-05T07:32:35.018Z,17.8
2017-09-05T07:33:36.558Z,18.0
2017-09-05T07:34:37.934Z,18.1
2017-09-05T07:35:39.318Z,18.0
2017-09-05T07:36:40.698Z,18.5
2017-09-05T07:37:42.087Z,18.2
2017-09-05T07:38:43.468Z,18.6
2017-09-05T07:39:44.850Z,18.6
2017-09-05T07:40:46.246Z,18.8
2017-09-05T07:41:47.613Z,18.8
2017-09-05T07:42:48.998Z,19.0
2017-09-05T07:43:50.377Z,18.6
2017-09-05T07:44:51.756Z,18.5
2017-09-05T07:45:53.134Z,18.6
2017-09-05T07:46:54.522Z,18.9
2017-09-05T07:47:55.948Z,19.0
2017-09-05T07:48:57.287Z,19.0
2017-09-05T07:49:58.701Z,18.9
2017-09-05T07:51:00.087Z,19.2
2017-09-05T07:52:01.500Z,19.0
2017-09-05T07:53:02.885Z,19.2
2017-09-05T07:54:04.275Z,19.6
2017-09-05T07:55:05.655Z,19.7
2017-09-05T07:56:07.109Z,19.6
2017-09-05T07:57:08.491Z,19.8
2017-09-05T07:58:09.871Z,19.4
2017-09-05T07:59:11.249Z,19.8
2017-09-05T08:00:12.642Z,19.6
2017-09-05T08:01:14.098Z,19.8
2017-09-05T08:02:15.501Z,20.0
2017-09-05T08:03:16.898Z,20.0
2017-09-05T08:04:18.351Z,20.1
2017-09-05T08:05:20.351Z,19.9
2017-09-05T08:06:21.730Z,20.4
2017-09-05T08:07:23.274Z,20.6
2017-09-05T08:08:28.020Z,20.6
2017-09-05T08:09:29.341Z,20.3
2017-09-05T08:10:30.894Z,20.3
2017-09-05T08:11:32.457Z,20.5
2017-09-05T08:12:33.973Z,20.5
2017-09-05T08:13:35.651Z,20.7
2017-09-05T08:14:37.352Z,21.0
2017-09-05T08:15:39.059Z,21.8
2017-09-05T08:16:40.736Z,21.5
2017-09-05T08:17:42.290Z,21.1
2017-09-05T08:18:44.458Z,21.0
2017-09-05T08:19:46.168Z,21.1
2017-09-05T08:20:47.540Z,21.4
2017-09-05T08:21:49.170Z,21.2
2017-09-05T08:22:50.721Z,21.0
2017-09-05T08:23:52.276Z,21.8
2017-09-05T08:24:55.240Z,22.1
2017-09-05T08:25:56.815Z,21.4
2017-09-05T08:26:58.682Z,21.8
2017-09-05T08:28:00.501Z,21.7
2017-09-05T08:29:02.811Z,22.0
2017-09-05T08:30:04.765Z,21.9
2017-09-05T08:31:06.745Z,21.9
2017-09-05T08:32:10.956Z,21.7
2017-09-05T08:33:17.565Z,21.6
2017-09-05T08:34:23.109Z,21.6
2017-09-05T08:35:29.773Z,21.9
2017-09-05T08:36:37.984Z,22.2
2017-09-05T08:37:43.711Z,22.4
2017-09-05T08:38:50.044Z,22.1
2017-09-05T08:39:55.927Z,22.4
2017-09-05T08:41:01.783Z,22.5
2017-09-05T08:42:05.719Z,22.5
2017-09-05T08:43:12.928Z,22.5
2017-09-05T08:44:22.087Z,23.1
2017-09-05T08:45:41.594Z,23.0
2017-09-05T08:46:47.338Z,23.5
2017-09-05T08:47:49.949Z,23.0
2017-09-05T08:49:24.951Z,23.0
2017-09-05T08:50:38.568Z,23.4
2017-09-05T08:51:45.379Z,24.3
2017-09-05T08:53:28.437Z,23.9
2017-09-05T08:54:41.226Z,23.1
2017-09-05T08:55:44.014Z,23.5
2017-09-05T08:56:47.286Z,23.6
2017-09-05T08:57:52.366Z,23.7
2017-09-05T08:58:54.141Z,23.5
2017-09-05T08:59:57.255Z,23.4
2017-09-05T09:01:02.937Z,23.4
2017-09-05T09:02:05.398Z,23.1
2017-09-05T09:03:06.897Z,23.5
2017-09-05T09:04:08.667Z,23.7
2017-09-05T09:05:11.818Z,23.8
2017-09-05T09:06:13.282Z,24.0
2017-09-05T09:07:15.076Z,23.7
2017-09-05T09:08:17.968Z,24.2
2017-09-05T09:09:19.871Z,24.4
2017-09-05T09:10:22.139Z,23.9
2017-09-05T09:11:24.142Z,24.2
2017-09-05T09:12:30.026Z,24.2
2017-09-05T09:13:33.825Z,25.0
2017-09-05T09:14:37.812Z,24.6
2017-09-05T09:15:40.474Z,24.2
2017-09-05T09:16:45.152Z,24.4
2017-09-05T09:17:47.349Z,24.2
2017-09-05T09:18:52.363Z,23.9
2017-09-05T09:19:54.433Z,24.0
2017-09-05T09:20:58.051Z,24.7
2017-09-05T09:22:00.122Z,25.5
2017-09-05T09:23:02.704Z,26.0
2017-09-05T09:24:04.563Z,25.6
2017-09-05T09:25:06.357Z,25.9
2017-09-05T09:26:08.357Z,25.7
2017-09-05T09:27:10.096Z,25.7
2017-09-05T09:28:12.506Z,25.8
2017-09-05T09:29:14.856Z,25.5
2017-09-05T09:30:17.802Z,25.6
2017-09-05T09:31:20.649Z,25.2
2017-09-05T09:32:22.396Z,25.0
2017-09-05T09:33:23.988Z,25.6
2017-09-05T09:34:25.601Z,25.7
2017-09-05T09:35:27.611Z,25.4
2017-09-05T09:36:29.357Z,25.6
2017-09-05T09:37:31.571Z,25.8
2017-09-05T09:38:33.870Z,25.9
2017-09-05T09:39:35.641Z,25.7
2017-09-05T09:40:39.061Z,25.5
2017-09-05T09:41:40.780Z,25.3
2017-09-05T09:42:42.570Z,26.3
2017-09-05T09:43:45.933Z,26.4
2017-09-05T09:44:47.803Z,26.0
2017-09-05T09:45:49.821Z,26.1
2017-09-05T09:46:52.908Z,26.8
2017-09-05T09:47:54.972Z,27.4
2017-09-05T09:48:57.298Z,27.6
2017-09-05T09:50:00.111Z,26.8
2017-09-05T09:51:02.484Z,25.8
2017-09-05T09:52:04.729Z,26.1
2017-09-05T09:53:06.653Z,26.2
2017-09-05T09:54:09.546Z,26.8
2017-09-05T09:55:12.163Z,26.6
2017-09-05T09:56:17.261Z,26.3
2017-09-05T09:57:20.273Z,27.0
2017-09-05T09:58:25.026Z,26.6
2017-09-05T09:59:30.840Z,27.1
2017-09-05T10:00:35.488Z,26.6
2017-09-05T10:01:38.489Z,26.8
2017-09-05T10:02:41.359Z,26.6
2017-09-05T10:03:44.718Z,26.7
2017-09-05T10:04:46.871Z,26.9
2017-09-05T10:05:49.821Z,27.2
2017-09-05T10:06:51.769Z,26.9
2017-09-05T10:08:02.361Z,26.3
2017-09-05T10:09:08.194Z,26.9
2017-09-05T10:10:12.649Z,27.0
2017-09-05T10:11:15.834Z,27.4
2017-09-05T10:12:20.421Z,27.2
2017-09-05T10:13:29.386Z,27.4
2017-09-05T10:14:34.683Z,28.2
2017-09-05T10:15:36.288Z,29.0
2017-09-05T10:16:38.160Z,28.3
2017-09-05T10:17:40.066Z,29.0
2017-09-05T10:18:42.914Z,29.5
2017-09-05T10:19:45.321Z,29.5
2017-09-05T10:20:51.599Z,29.3
2017-09-05T10:21:57.631Z,29.8
2017-09-05T10:23:03.778Z,30.2
2017-09-05T10:24:09.511Z,28.1
2017-09-05T10:25:11.402Z,27.8
2017-09-05T10:26:13.949Z,27.7
2017-09-05T10:27:16.946Z,27.5
2017-09-05T10:28:57.912Z,27.0
2017-09-05T10:30:23.170Z,27.3
2017-09-05T10:31:28.140Z,27.1
2017-09-05T10:32:35.079Z,27.2
2017-09-05T10:33:38.371Z,27.0
2017-09-05T10:35:20.376Z,27.2
2017-09-05T10:36:24.694Z,26.2
2017-09-05T10:37:33.120Z,26.6
2017-09-05T10:39:08.928Z,26.9
2017-09-05T10:40:57.464Z,27.5
2017-09-05T10:42:00.202Z,26.9
2017-09-05T10:43:34.793Z,27.3
2017-09-05T10:44:48.043Z,27.3
2017-09-05T10:45:51.726Z,28.0
2017-09-05T10:47:06.244Z,28.4
2017-09-05T10:48:12.436Z,28.4
2017-09-05T10:49:16.050Z,29.4
2017-09-05T10:50:19.780Z,32.1
2017-09-05T10:51:29.256Z,32.4
2017-09-05T10:53:28.010Z,32.4
2017-09-05T10:54:30.261Z,35.6
2017-09-05T10:55:34.988Z,34.2
2017-09-05T10:56:38.309Z,32.0
2017-09-05T10:57:41.613Z,28.7
2017-09-05T10:58:47.067Z,30.4
2017-09-05T10:59:52.448Z,29.2
2017-09-05T11:00:58.300Z,31.0
2017-09-05T11:02:00.736Z,33.1
2017-09-05T11:03:04.048Z,35.7
2017-09-05T11:04:09.241Z,37.1
2017-09-05T11:05:11.931Z,33.2
2017-09-05T11:06:17.352Z,35.7
2017-09-05T11:07:20.045Z,36.1
2017-09-05T11:08:24.559Z,35.3
2017-09-05T11:09:27.393Z,34.7
2017-09-05T11:10:31.677Z,34.4
2017-09-05T11:11:34.932Z,35.9
2017-09-05T11:12:36.998Z,35.8
2017-09-05T11:13:39.804Z,37.2
2017-09-05T11:14:42.512Z,36.2
2017-09-05T11:15:45.489Z,38.0
2017-09-05T11:16:48.167Z,38.9
2017-09-05T11:17:51.224Z,36.8
2017-09-05T11:18:56.481Z,36.0
2017-09-05T11:20:02.026Z,36.8
2017-09-05T11:21:11.364Z,35.9
2017-09-05T11:22:27.174Z,36.7
2017-09-05T11:23:35.606Z,35.8
2017-09-05T11:24:49.174Z,38.2
2017-09-05T11:25:56.535Z,38.0
2017-09-05T11:27:03.901Z,40.3
2017-09-05T11:28:18.106Z,39.9
2017-09-05T11:29:21.030Z,42.8
2017-09-05T11:30:23.370Z,44.1
2017-09-05T11:31:25.137Z,44.1
2017-09-05T11:32:26.934Z,39.7
2017-09-05T11:33:28.748Z,37.3
2017-09-05T11:34:31.069Z,40.5
2017-09-05T11:35:32.511Z,42.1
2017-09-05T11:36:34.115Z,39.2
2017-09-05T11:37:35.748Z,39.2
2017-09-05T11:38:38.004Z,37.8
2017-09-05T11:39:41.542Z,37.8
2017-09-05T11:40:44.027Z,39.7
2017-09-05T11:41:46.165Z,42.2
2017-09-05T11:42:48.520Z,43.0
2017-09-05T11:43:50.685Z,41.8
2017-09-05T11:44:53.365Z,45.3
2017-09-05T11:45:55.305Z,46.0
2017-09-05T11:46:58.012Z,49.0
2017-09-05T11:48:03.121Z,48.1
2017-09-05T11:49:05.984Z,42.5
2017-09-05T11:50:08.583Z,42.9
2017-09-05T11:51:11.190Z,39.6
2017-09-05T11:52:14.117Z,38.9
2017-09-05T11:53:16.801Z,37.5
2017-09-05T11:54:19.196Z,38.1
2017-09-05T11:55:21.830Z,37.4
2017-09-05T11:56:23.828Z,37.1
2017-09-05T11:57:26.116Z,37.9
2017-09-05T11:58:28.182Z,36.9
2017-09-05T11:59:30.152Z,37.6
2017-09-05T12:00:32.304Z,37.0
2017-09-05T12:01:34.256Z,36.0
2017-09-05T12:02:36.077Z,32.7
2017-09-05T12:03:38.468Z,33.8
2017-09-05T12:04:40.760Z,35.4
2017-09-05T12:05:43.120Z,36.2
2017-09-05T12:06:46.844Z,36.9
2017-09-05T12:07:49.209Z,40.3
2017-09-05T12:08:51.016Z,43.2
2017-09-05T12:09:53.332Z,46.8
2017-09-05T12:10:58.649Z,47.3
2017-09-05T12:12:05.615Z,46.9
2017-09-05T12:13:10.887Z,47.9
2017-09-05T12:14:16.359Z,47.8
2017-09-05T12:15:18.035Z,47.0
2017-09-05T12:16:19.981Z,43.4
2017-09-05T12:17:22.026Z,46.3
2017-09-05T12:18:24.413Z,40.8
2017-09-05T12:19:27.639Z,39.6
2017-09-05T12:20:33.299Z,40.6
2017-09-05T12:21:35.957Z,41.5
2017-09-05T12:22:40.062Z,44.3
2017-09-05T12:23:42.657Z,46.4
2017-09-05T12:24:44.611Z,42.6
2017-09-05T12:25:46.278Z,41.3
2017-09-05T12:26:48.601Z,38.9
2017-09-05T12:27:50.019Z,38.3
2017-09-05T12:28:51.865Z,38.6
2017-09-05T12:29:53.368Z,43.9
2017-09-05T12:30:55.228Z,48.7
2017-09-05T12:31:56.837Z,44.3
2017-09-05T12:32:59.546Z,40.6
2017-09-05T12:34:01.510Z,40.6
2017-09-05T12:35:03.389Z,40.2
2017-09-05T12:36:05.218Z,40.7
2017-09-05T12:37:07.438Z,42.7
2017-09-05T12:38:09.019Z,42.4
2017-09-05T12:39:10.956Z,46.1
2017-09-05T12:40:12.670Z,43.7
2017-09-05T12:41:14.379Z,42.9
2017-09-05T12:42:16.151Z,41.8
2017-09-05T12:43:17.758Z,40.6
2017-09-05T12:44:21.248Z,38.7
2017-09-05T12:45:23.348Z,38.2
2017-09-05T12:46:25.281Z,37.4
2017-09-05T12:47:27.173Z,38.0
2017-09-05T12:48:28.785Z,41.3
2017-09-05T12:49:30.329Z,41.6
2017-09-05T12:50:32.049Z,39.2
2017-09-05T12:51:34.090Z,38.6
2017-09-05T12:52:35.858Z,39.8
2017-09-05T12:53:37.519Z,39.0
2017-09-05T12:54:39.293Z,39.3
2017-09-05T12:55:41.013Z,38.0
2017-09-05T12:56:42.669Z,38.1
2017-09-05T12:57:45.529Z,41.6
2017-09-05T12:58:47.520Z,47.4
2017-09-05T12:59:49.073Z,50.2
2017-09-05T13:00:50.780Z,51.4
2017-09-05T13:01:53.284Z,46.5
2017-09-05T13:02:55.215Z,44.8
2017-09-05T13:03:57.405Z,42.2
2017-09-05T13:04:59.387Z,40.8
2017-09-05T13:06:02.487Z,42.8
2017-09-05T13:07:04.337Z,39.2
2017-09-05T13:08:06.121Z,39.8
2017-09-05T13:09:09.011Z,38.2
2017-09-05T13:10:11.457Z,41.4
2017-09-05T13:11:14.196Z,41.8
2017-09-05T13:12:16.787Z,42.3
2017-09-05T13:13:18.666Z,45.9
2017-09-05T13:14:20.324Z,41.4
2017-09-05T13:15:22.764Z,40.8
2017-09-05T13:16:24.640Z,40.8
2017-09-05T13:17:26.581Z,40.3
2017-09-05T13:18:28.967Z,43.8
2017-09-05T13:19:30.804Z,46.9
2017-09-05T13:20:32.801Z,47.3
2017-09-05T13:21:34.793Z,47.6
2017-09-05T13:22:36.603Z,48.0
2017-09-05T13:23:38.472Z,47.7
2017-09-05T13:25:02.428Z,46.5
2017-09-05T13:26:04.775Z,48.6
2017-09-05T13:27:06.514Z,42.0
2017-09-05T13:28:10.083Z,40.7
2017-09-05T13:29:52.971Z,40.0
2017-09-05T13:30:54.717Z,40.0
2017-09-05T13:31:58.992Z,38.6
2017-09-05T13:33:00.890Z,41.7
2017-09-05T13:34:02.965Z,39.7
2017-09-05T13:35:05.527Z,40.0
2017-09-05T13:36:07.720Z,37.8
2017-09-05T13:37:09.763Z,41.8
2017-09-05T13:38:12.893Z,43.5
2017-09-05T13:39:15.112Z,47.8
2017-09-05T13:40:18.105Z,43.0
2017-09-05T13:41:33.251Z,42.2
2017-09-05T13:42:34.996Z,44.8
2017-09-05T13:43:37.464Z,45.5
2017-09-05T13:44:39.524Z,44.0
2017-09-05T13:45:43.165Z,45.5
2017-09-05T13:46:46.046Z,48.7
2017-09-05T13:47:49.612Z,49.1
2017-09-05T13:48:51.237Z,44.7
2017-09-05T13:49:52.851Z,42.1
2017-09-05T13:50:54.713Z,44.6
2017-09-05T13:51:56.582Z,42.0
2017-09-05T13:52:58.717Z,43.2
2017-09-05T13:54:01.722Z,38.9